createdAt,value
2018-01-19T00:00:01.008Z,2.51
2018-01-19T00:01:01.053Z,2.56
2018-01-19T00:02:00.982Z,2.53
2018-01-19T00:03:00.990Z,2.55
2018-01-19T00:04:01.102Z,2.58
2018-01-19T00:05:00.997Z,2.51
2018-01-19T00:06:01.000Z,2.53
2018-01-19T00:07:01.021Z,2.55
2018-01-19T00:08:01.011Z,2.51
2018-01-19T00:09:01.003Z,2.50
2018-01-19T00:10:01.410Z,2.62
2018-01-19T00:11:01.027Z,2.55
2018-01-19T00:12:01.029Z,2.59
2018-01-19T00:13:01.066Z,2.59
2018-01-19T00:14:01.034Z,2.56
2018-01-19T00:15:01.045Z,2.55
2018-01-19T00:16:01.055Z,2.51
2018-01-19T00:17:01.072Z,2.61
2018-01-19T00:18:01.071Z,2.61
2018-01-19T00:19:01.086Z,2.73
2018-01-19T00:20:01.049Z,2.66
2018-01-19T00:21:01.108Z,2.68
2018-01-19T00:22:01.059Z,2.58
2018-01-19T00:23:01.074Z,2.55
2018-01-19T00:24:01.070Z,2.55
2018-01-19T00:25:01.083Z,2.61
2018-01-19T00:26:01.077Z,2.56
2018-01-19T00:27:01.099Z,2.65
2018-01-19T00:28:01.087Z,2.61
2018-01-19T00:29:01.221Z,2.66
2018-01-19T00:30:01.102Z,2.58
2018-01-19T00:31:01.102Z,2.58
2018-01-19T00:32:01.111Z,2.58
2018-01-19T00:33:01.113Z,2.68
2018-01-19T00:34:01.121Z,2.58
2018-01-19T00:35:01.121Z,2.65
2018-01-19T00:36:01.126Z,2.59
2018-01-19T00:37:01.134Z,2.53
2018-01-19T00:38:01.141Z,2.62
2018-01-19T00:39:01.145Z,2.58
2018-01-19T00:40:01.160Z,2.68
2018-01-19T00:41:01.178Z,2.61
2018-01-19T00:42:01.186Z,2.58
2018-01-19T00:43:01.177Z,2.71
2018-01-19T00:44:01.155Z,2.69
2018-01-19T00:45:01.161Z,2.71
2018-01-19T00:46:01.165Z,2.76
2018-01-19T00:47:01.170Z,2.73
2018-01-19T00:48:01.192Z,2.76
2018-01-19T00:49:01.204Z,2.77
2018-01-19T00:50:01.192Z,2.71
2018-01-19T00:51:01.200Z,2.69
2018-01-19T00:52:01.202Z,2.73
2018-01-19T00:53:01.216Z,2.65
2018-01-19T00:54:01.228Z,2.62
2018-01-19T00:55:01.229Z,2.68
2018-01-19T00:56:01.228Z,2.53
2018-01-19T00:57:01.224Z,2.58
2018-01-19T00:58:01.328Z,2.59
2018-01-19T00:59:01.240Z,2.58
2018-01-19T01:00:01.283Z,2.62
2018-01-19T01:01:01.268Z,2.61
2018-01-19T01:02:01.246Z,2.59
2018-01-19T01:03:01.252Z,2.61
2018-01-19T01:04:01.262Z,2.56
2018-01-19T01:05:01.269Z,2.58
2018-01-19T01:06:01.293Z,2.59
2018-01-19T01:07:01.266Z,2.62
2018-01-19T01:08:01.304Z,2.61
2018-01-19T01:09:01.314Z,2.51
2018-01-19T01:10:01.349Z,2.62
2018-01-19T01:11:01.313Z,2.65
2018-01-19T01:12:01.290Z,2.50
2018-01-19T01:13:01.329Z,2.56
2018-01-19T01:14:01.309Z,2.59
2018-01-19T01:15:01.299Z,2.50
2018-01-19T01:16:01.325Z,2.53
2018-01-19T01:17:01.349Z,2.58
2018-01-19T01:18:01.345Z,2.45
2018-01-19T01:19:01.320Z,2.50
2018-01-19T01:20:01.315Z,2.55
2018-01-19T01:21:01.330Z,2.58
2018-01-19T01:22:01.353Z,2.55
2018-01-19T01:23:01.336Z,2.55
2018-01-19T01:24:01.339Z,2.58
2018-01-19T01:25:01.382Z,2.55
2018-01-19T01:26:01.368Z,2.43
2018-01-19T01:27:01.359Z,2.59
2018-01-19T01:28:01.380Z,2.58
2018-01-19T01:29:01.401Z,2.56
2018-01-19T01:30:01.375Z,2.53
2018-01-19T01:31:01.369Z,2.56
2018-01-19T01:32:01.380Z,2.56
2018-01-19T01:33:01.382Z,2.59
2018-01-19T01:34:01.379Z,2.51
2018-01-19T01:35:01.379Z,2.50
2018-01-19T01:36:01.411Z,2.55
2018-01-19T01:37:01.454Z,2.47
2018-01-19T01:38:01.398Z,2.51
2018-01-19T01:39:01.411Z,2.51
2018-01-19T01:40:01.415Z,2.51
2018-01-19T01:41:01.440Z,2.56
2018-01-19T01:42:01.420Z,2.50
2018-01-19T01:43:01.422Z,2.56
2018-01-19T01:44:01.417Z,2.56
2018-01-19T01:45:01.429Z,2.56
2018-01-19T01:46:01.448Z,2.53
2018-01-19T01:47:01.435Z,2.59
2018-01-19T01:48:01.445Z,2.61
2018-01-19T01:49:01.503Z,2.58
2018-01-19T01:50:01.487Z,2.63
2018-01-19T01:51:01.465Z,2.63
2018-01-19T01:52:01.462Z,2.59
2018-01-19T01:53:01.552Z,2.56
2018-01-19T01:54:01.479Z,2.56
2018-01-19T01:55:01.486Z,2.61
2018-01-19T01:56:01.483Z,2.65
2018-01-19T01:57:01.486Z,2.61
2018-01-19T01:58:01.500Z,2.68
2018-01-19T01:59:01.527Z,2.55
2018-01-19T02:00:01.564Z,2.65
2018-01-19T02:01:01.537Z,2.69
2018-01-19T02:02:01.563Z,2.68
2018-01-19T02:03:01.502Z,2.59
2018-01-19T02:04:01.558Z,2.71
2018-01-19T02:05:01.536Z,2.65
2018-01-19T02:06:01.525Z,2.65
2018-01-19T02:07:01.526Z,2.61
2018-01-19T02:08:01.542Z,2.65
2018-01-19T02:09:01.602Z,2.63
2018-01-19T02:10:01.573Z,2.62
2018-01-19T02:11:01.553Z,2.66
2018-01-19T02:12:01.550Z,2.65
2018-01-19T02:13:01.551Z,2.62
2018-01-19T02:14:01.561Z,2.68
2018-01-19T02:15:01.568Z,2.68
2018-01-19T02:16:01.579Z,2.69
2018-01-19T02:17:01.578Z,2.62
2018-01-19T02:18:01.611Z,2.69
2018-01-19T02:19:01.611Z,2.73
2018-01-19T02:20:01.590Z,2.68
2018-01-19T02:21:01.599Z,2.71
2018-01-19T02:22:01.585Z,2.71
2018-01-19T02:23:01.598Z,2.59
2018-01-19T02:24:01.664Z,2.63
2018-01-19T02:25:01.602Z,2.56
2018-01-19T02:26:01.613Z,2.66
2018-01-19T02:27:01.622Z,2.65
2018-01-19T02:28:01.642Z,2.69
2018-01-19T02:29:01.638Z,2.71
2018-01-19T02:30:01.810Z,2.69
2018-01-19T02:31:01.643Z,2.68
2018-01-19T02:32:01.643Z,2.66
2018-01-19T02:33:01.637Z,2.71
2018-01-19T02:34:01.643Z,2.80
2018-01-19T02:35:01.659Z,2.69
2018-01-19T02:36:01.661Z,2.71
2018-01-19T02:37:01.659Z,2.76
2018-01-19T02:38:01.685Z,2.83
2018-01-19T02:39:01.686Z,2.84
2018-01-19T02:40:01.686Z,2.80
2018-01-19T02:41:01.697Z,2.81
2018-01-19T02:42:01.689Z,2.92
2018-01-19T02:43:01.706Z,2.87
2018-01-19T02:44:01.696Z,2.89
2018-01-19T02:45:01.734Z,2.94
2018-01-19T02:46:01.743Z,2.89
2018-01-19T02:47:01.716Z,2.90
2018-01-19T02:48:01.711Z,2.92
2018-01-19T02:49:01.736Z,2.98
2018-01-19T02:50:01.755Z,2.90
2018-01-19T02:51:01.733Z,2.89
2018-01-19T02:52:01.736Z,2.94
2018-01-19T02:53:01.753Z,2.94
2018-01-19T02:54:01.754Z,2.92
2018-01-19T02:55:01.750Z,2.95
2018-01-19T02:56:01.765Z,2.90
2018-01-19T02:57:01.788Z,2.92
2018-01-19T02:58:01.762Z,2.95
2018-01-19T02:59:01.760Z,2.95
2018-01-19T03:00:01.786Z,2.95
2018-01-19T03:01:01.775Z,2.97
2018-01-19T03:02:01.804Z,2.90
2018-01-19T03:03:01.827Z,2.90
2018-01-19T03:04:01.780Z,2.92
2018-01-19T03:05:01.812Z,2.89
2018-01-19T03:06:01.898Z,2.97
2018-01-19T03:07:01.783Z,2.90
2018-01-19T03:08:01.799Z,2.87
2018-01-19T03:09:01.875Z,2.92
2018-01-19T03:10:02.124Z,2.90
2018-01-19T03:11:01.850Z,2.94
2018-01-19T03:12:01.823Z,2.90
2018-01-19T03:13:01.826Z,2.94
2018-01-19T03:14:01.832Z,2.92
2018-01-19T03:15:01.839Z,2.90
2018-01-19T03:16:01.839Z,2.84
2018-01-19T03:17:01.831Z,2.92
2018-01-19T03:18:01.857Z,2.81
2018-01-19T03:19:01.841Z,2.86
2018-01-19T03:20:01.854Z,2.86
2018-01-19T03:21:01.857Z,2.89
2018-01-19T03:22:01.871Z,2.83
2018-01-19T03:23:01.887Z,2.81
2018-01-19T03:24:01.893Z,2.86
2018-01-19T03:25:01.867Z,2.84
2018-01-19T03:26:01.875Z,2.77
2018-01-19T03:27:01.894Z,2.83
2018-01-19T03:28:01.887Z,2.89
2018-01-19T03:29:01.893Z,2.81
2018-01-19T03:30:01.935Z,2.86
2018-01-19T03:31:01.920Z,2.83
2018-01-19T03:32:01.912Z,2.95
2018-01-19T03:33:01.927Z,2.84
2018-01-19T03:34:01.943Z,2.83
2018-01-19T03:35:01.929Z,2.83
2018-01-19T03:36:01.921Z,2.95
2018-01-19T03:37:01.922Z,2.90
2018-01-19T03:38:01.957Z,2.90
2018-01-19T03:39:01.961Z,2.94
2018-01-19T03:40:01.945Z,2.97
2018-01-19T03:41:01.959Z,2.90
2018-01-19T03:42:01.965Z,2.87
2018-01-19T03:43:01.959Z,2.97
2018-01-19T03:44:01.967Z,2.81
2018-01-19T03:45:01.971Z,2.87
2018-01-19T03:46:01.984Z,2.92
2018-01-19T03:47:02.012Z,2.83
2018-01-19T03:48:01.985Z,2.95
2018-01-19T03:49:01.981Z,2.95
2018-01-19T03:50:02.060Z,2.87
2018-01-19T03:51:02.000Z,2.92
2018-01-19T03:52:01.995Z,2.89
2018-01-19T03:53:02.005Z,2.87
2018-01-19T03:54:02.026Z,2.92
2018-01-19T03:55:02.081Z,2.81
2018-01-19T03:56:02.046Z,2.83
2018-01-19T03:57:02.613Z,2.89
2018-01-19T03:58:02.033Z,2.79
2018-01-19T03:59:02.040Z,2.80
2018-01-19T04:00:02.051Z,2.89
2018-01-19T04:01:02.034Z,2.86
2018-01-19T04:02:02.101Z,2.81
2018-01-19T04:03:02.050Z,2.92
2018-01-19T04:04:02.057Z,2.86
2018-01-19T04:05:02.059Z,2.92
2018-01-19T04:06:02.064Z,2.87
2018-01-19T04:07:02.067Z,2.97
2018-01-19T04:08:02.103Z,2.84
2018-01-19T04:09:02.098Z,2.81
2018-01-19T04:10:02.095Z,2.84
2018-01-19T04:11:02.078Z,2.81
2018-01-19T04:12:02.091Z,2.76
2018-01-19T04:13:02.099Z,2.71
2018-01-19T04:14:02.116Z,2.71
2018-01-19T04:15:02.295Z,2.74
2018-01-19T04:16:02.110Z,2.65
2018-01-19T04:17:02.122Z,2.62
2018-01-19T04:18:02.122Z,2.59
2018-01-19T04:19:02.113Z,2.61
2018-01-19T04:20:02.136Z,2.61
2018-01-19T04:21:02.129Z,2.55
2018-01-19T04:22:02.132Z,2.51
2018-01-19T04:23:02.130Z,2.41
2018-01-19T04:24:02.140Z,2.43
2018-01-19T04:25:02.143Z,2.45
2018-01-19T04:26:02.156Z,2.50
2018-01-19T04:27:02.150Z,2.44
2018-01-19T04:28:02.175Z,2.41
2018-01-19T04:29:02.171Z,2.38
2018-01-19T04:30:02.244Z,2.40
2018-01-19T04:31:02.183Z,2.33
2018-01-19T04:32:02.183Z,2.44
2018-01-19T04:33:02.185Z,2.36
2018-01-19T04:34:02.194Z,2.27
2018-01-19T04:35:02.195Z,2.40
2018-01-19T04:36:02.196Z,2.25
2018-01-19T04:37:02.199Z,2.23
2018-01-19T04:38:02.292Z,2.19
2018-01-19T04:39:02.212Z,2.29
2018-01-19T04:40:02.215Z,2.22
2018-01-19T04:41:02.218Z,2.19
2018-01-19T04:42:02.221Z,2.11
2018-01-19T04:43:02.225Z,2.12
2018-01-19T04:44:02.224Z,2.11
2018-01-19T04:45:02.235Z,2.05
2018-01-19T04:46:02.237Z,2.05
2018-01-19T04:47:02.254Z,2.05
2018-01-19T04:48:02.250Z,2.08
2018-01-19T04:49:02.263Z,2.09
2018-01-19T04:50:02.262Z,2.05
2018-01-19T04:51:02.260Z,2.05
2018-01-19T04:52:02.290Z,2.08
2018-01-19T04:53:02.266Z,2.09
2018-01-19T04:54:02.261Z,2.08
2018-01-19T04:55:02.272Z,2.01
2018-01-19T04:56:02.311Z,2.14
2018-01-19T04:57:02.287Z,2.07
2018-01-19T04:58:02.282Z,2.09
2018-01-19T04:59:02.298Z,2.01
2018-01-19T05:00:02.292Z,2.12
2018-01-19T05:01:02.291Z,2.14
2018-01-19T05:02:02.304Z,2.09
2018-01-19T05:03:02.308Z,2.05
2018-01-19T05:04:02.312Z,2.08
2018-01-19T05:05:02.312Z,2.05
2018-01-19T05:06:02.316Z,2.05
2018-01-19T05:07:02.328Z,2.07
2018-01-19T05:08:02.331Z,2.05
2018-01-19T05:09:02.399Z,2.09
2018-01-19T05:10:02.369Z,2.05
2018-01-19T05:11:02.332Z,2.11
2018-01-19T05:12:02.342Z,2.05
2018-01-19T05:13:02.349Z,2.04
2018-01-19T05:14:02.351Z,2.12
2018-01-19T05:15:02.352Z,2.08
2018-01-19T05:16:02.358Z,2.12
2018-01-19T05:17:02.359Z,2.22
2018-01-19T05:18:02.374Z,2.23
2018-01-19T05:19:02.407Z,2.26
2018-01-19T05:20:02.377Z,2.23
2018-01-19T05:21:02.374Z,2.25
2018-01-19T05:22:02.394Z,2.23
2018-01-19T05:23:02.399Z,2.25
2018-01-19T05:24:02.392Z,2.22
2018-01-19T05:25:02.399Z,2.20
2018-01-19T05:26:02.398Z,2.25
2018-01-19T05:27:02.399Z,2.08
2018-01-19T05:28:02.410Z,2.20
2018-01-19T05:29:02.410Z,2.14
2018-01-19T05:30:02.437Z,2.11
2018-01-19T05:31:02.423Z,2.12
2018-01-19T05:32:02.435Z,2.20
2018-01-19T05:33:02.437Z,2.18
2018-01-19T05:34:02.435Z,2.19
2018-01-19T05:35:02.456Z,2.23
2018-01-19T05:36:02.455Z,2.19
2018-01-19T05:37:02.451Z,2.22
2018-01-19T05:38:02.457Z,2.23
2018-01-19T05:39:02.447Z,2.19
2018-01-19T05:40:02.460Z,2.22
2018-01-19T05:41:02.456Z,2.23
2018-01-19T05:42:02.465Z,2.26
2018-01-19T05:43:02.466Z,2.25
2018-01-19T05:44:02.471Z,2.15
2018-01-19T05:45:02.484Z,2.12
2018-01-19T05:46:02.489Z,2.22
2018-01-19T05:47:02.483Z,2.26
2018-01-19T05:48:02.503Z,2.23
2018-01-19T05:49:02.499Z,2.33
2018-01-19T05:50:02.616Z,2.25
2018-01-19T05:51:02.509Z,2.36
2018-01-19T05:52:02.505Z,2.44
2018-01-19T05:53:02.517Z,2.25
2018-01-19T05:54:02.521Z,2.26
2018-01-19T05:55:02.544Z,2.22
2018-01-19T05:56:02.527Z,2.27
2018-01-19T05:57:02.532Z,2.19
2018-01-19T05:58:02.544Z,2.26
2018-01-19T05:59:02.538Z,2.23
2018-01-19T06:00:02.538Z,2.25
2018-01-19T06:01:02.544Z,2.27
2018-01-19T06:02:02.554Z,2.26
2018-01-19T06:03:02.554Z,2.27
2018-01-19T06:04:02.567Z,2.23
2018-01-19T06:05:02.557Z,2.25
2018-01-19T06:06:02.583Z,2.25
2018-01-19T06:07:02.581Z,2.15
2018-01-19T06:08:02.591Z,2.23
2018-01-19T06:09:02.574Z,2.26
2018-01-19T06:10:02.581Z,2.23
2018-01-19T06:11:02.589Z,2.23
2018-01-19T06:12:02.596Z,2.30
2018-01-19T06:13:02.667Z,2.38
2018-01-19T06:14:02.598Z,2.29
2018-01-19T06:15:02.601Z,2.25
2018-01-19T06:16:02.634Z,2.36
2018-01-19T06:17:02.611Z,2.27
2018-01-19T06:18:02.627Z,2.36
2018-01-19T06:19:02.611Z,2.37
2018-01-19T06:20:02.618Z,2.44
2018-01-19T06:21:02.622Z,2.22
2018-01-19T06:22:02.626Z,2.26
2018-01-19T06:23:02.634Z,2.33
2018-01-19T06:24:02.635Z,2.36
2018-01-19T06:25:02.640Z,2.36
2018-01-19T06:26:02.657Z,2.44
2018-01-19T06:27:02.653Z,2.40
2018-01-19T06:28:02.663Z,2.50
2018-01-19T06:29:02.664Z,2.48
2018-01-19T06:30:02.673Z,2.48
2018-01-19T06:31:02.671Z,2.48
2018-01-19T06:32:02.677Z,2.38
2018-01-19T06:33:02.669Z,2.40
2018-01-19T06:34:02.681Z,2.45
2018-01-19T06:35:02.701Z,2.36
2018-01-19T06:36:02.698Z,2.40
2018-01-19T06:37:02.703Z,2.44
2018-01-19T06:38:02.696Z,2.50
2018-01-19T06:39:02.692Z,2.45
2018-01-19T06:40:02.706Z,2.43
2018-01-19T06:41:02.742Z,2.40
2018-01-19T06:42:02.717Z,2.40
2018-01-19T06:43:02.739Z,2.47
2018-01-19T06:44:02.746Z,2.41
2018-01-19T06:45:02.714Z,2.37
2018-01-19T06:46:02.725Z,2.41
2018-01-19T06:47:02.725Z,2.37
2018-01-19T06:48:02.744Z,2.38
2018-01-19T06:49:02.736Z,2.32
2018-01-19T06:50:02.752Z,2.48
2018-01-19T06:51:02.755Z,2.48
2018-01-19T06:52:02.744Z,2.51
2018-01-19T06:53:02.750Z,2.43
2018-01-19T06:54:02.834Z,2.48
2018-01-19T06:55:02.770Z,2.40
2018-01-19T06:56:02.788Z,2.43
2018-01-19T06:57:02.767Z,2.50
2018-01-19T06:58:02.788Z,2.48
2018-01-19T06:59:02.791Z,2.47
2018-01-19T07:00:02.783Z,2.56
2018-01-19T07:01:02.803Z,2.53
2018-01-19T07:02:02.808Z,2.53
2018-01-19T07:03:02.815Z,2.50
2018-01-19T07:04:02.930Z,2.53
2018-01-19T07:05:02.808Z,2.56
2018-01-19T07:06:02.823Z,2.51
2018-01-19T07:07:02.819Z,2.59
2018-01-19T07:08:02.822Z,2.62
2018-01-19T07:09:02.828Z,2.59
2018-01-19T07:10:02.830Z,2.53
2018-01-19T07:11:02.833Z,2.63
2018-01-19T07:12:02.832Z,2.62
2018-01-19T07:13:02.846Z,2.55
2018-01-19T07:14:02.848Z,2.63
2018-01-19T07:15:02.856Z,2.55
2018-01-19T07:16:02.857Z,2.59
2018-01-19T07:17:02.924Z,2.68
2018-01-19T07:18:02.874Z,2.65
2018-01-19T07:19:02.871Z,2.59
2018-01-19T07:20:02.874Z,2.65
2018-01-19T07:21:02.871Z,2.68
2018-01-19T07:22:02.871Z,2.58
2018-01-19T07:23:02.889Z,2.62
2018-01-19T07:24:02.889Z,2.51
2018-01-19T07:25:02.897Z,2.62
2018-01-19T07:26:02.901Z,2.63
2018-01-19T07:27:02.908Z,2.59
2018-01-19T07:28:02.921Z,2.59
2018-01-19T07:29:02.904Z,2.62
2018-01-19T07:30:02.912Z,2.68
2018-01-19T07:31:02.918Z,2.77
2018-01-19T07:32:03.619Z,2.80
2018-01-19T07:33:02.916Z,2.69
2018-01-19T07:34:02.943Z,2.73
2018-01-19T07:35:02.940Z,2.83
2018-01-19T07:36:02.956Z,2.81
2018-01-19T07:37:02.935Z,2.89
2018-01-19T07:38:02.941Z,2.89
2018-01-19T07:39:02.942Z,2.89
2018-01-19T07:40:02.951Z,2.84
2018-01-19T07:41:02.965Z,2.83
2018-01-19T07:42:02.966Z,2.86
2018-01-19T07:43:02.974Z,2.86
2018-01-19T07:44:02.963Z,2.86
2018-01-19T07:45:02.981Z,2.89
2018-01-19T07:46:02.983Z,2.87
2018-01-19T07:47:02.992Z,2.89
2018-01-19T07:48:02.986Z,2.81
2018-01-19T07:49:02.998Z,2.84
2018-01-19T07:50:02.998Z,2.80
2018-01-19T07:51:03.001Z,2.74
2018-01-19T07:52:03.011Z,2.76
2018-01-19T07:53:03.014Z,2.81
2018-01-19T07:54:03.049Z,2.73
2018-01-19T07:55:03.023Z,2.79
2018-01-19T07:56:03.027Z,2.69
2018-01-19T07:57:03.062Z,2.65
2018-01-19T07:58:03.055Z,2.65
2018-01-19T07:59:03.041Z,2.69
2018-01-19T08:00:03.069Z,2.65
2018-01-19T08:01:03.044Z,2.61
2018-01-19T08:02:03.052Z,2.61
2018-01-19T08:03:03.090Z,2.58
2018-01-19T08:04:03.076Z,2.53
2018-01-19T08:05:03.062Z,2.50
2018-01-19T08:06:03.076Z,2.55
2018-01-19T08:07:03.090Z,2.36
2018-01-19T08:08:03.066Z,2.41
2018-01-19T08:09:03.082Z,2.23
2018-01-19T08:10:03.083Z,2.25
2018-01-19T08:11:03.096Z,2.27
2018-01-19T08:12:03.083Z,2.23
2018-01-19T08:13:03.099Z,2.20
2018-01-19T08:14:03.103Z,2.30
2018-01-19T08:15:03.103Z,2.33
2018-01-19T08:16:03.147Z,2.22
2018-01-19T08:17:03.111Z,2.32
2018-01-19T08:18:03.154Z,2.22
2018-01-19T08:19:03.168Z,2.33
2018-01-19T08:20:03.222Z,2.26
2018-01-19T08:21:03.143Z,2.26
2018-01-19T08:22:03.149Z,2.33
2018-01-19T08:23:03.137Z,2.29
2018-01-19T08:24:03.150Z,2.20
2018-01-19T08:25:03.182Z,2.40
2018-01-19T08:26:03.146Z,2.43
2018-01-19T08:27:03.153Z,2.29
2018-01-19T08:28:03.256Z,2.41
2018-01-19T08:29:03.194Z,2.37
2018-01-19T08:30:03.174Z,2.29
2018-01-19T08:31:03.176Z,2.38
2018-01-19T08:32:03.181Z,2.38
2018-01-19T08:33:03.179Z,2.40
2018-01-19T08:34:03.180Z,2.25
2018-01-19T08:35:03.186Z,2.38
2018-01-19T08:36:03.233Z,2.44
2018-01-19T08:37:03.197Z,2.40
2018-01-19T08:38:03.191Z,2.43
2018-01-19T08:39:03.202Z,2.43
2018-01-19T08:40:03.203Z,2.40
2018-01-19T08:41:03.332Z,2.36
2018-01-19T08:42:03.226Z,2.43
2018-01-19T08:43:03.221Z,2.47
2018-01-19T08:44:03.420Z,2.41
2018-01-19T08:45:03.236Z,2.53
2018-01-19T08:46:03.286Z,2.51
2018-01-19T08:47:03.368Z,2.47
2018-01-19T08:48:03.546Z,2.61
2018-01-19T08:49:03.550Z,2.50
2018-01-19T08:50:03.550Z,2.56
2018-01-19T08:51:05.382Z,2.61
2018-01-19T08:53:03.265Z,2.65
2018-01-19T08:54:03.279Z,2.58
2018-01-19T08:55:03.317Z,2.62
2018-01-19T08:56:03.302Z,2.61
2018-01-19T08:57:03.290Z,2.65
2018-01-19T08:58:03.287Z,2.66
2018-01-19T08:59:03.301Z,2.71
2018-01-19T09:01:19.657Z,2.74
2018-01-19T09:02:27.128Z,2.81
2018-01-19T09:22:07.424Z,3.57
2018-01-19T09:23:07.392Z,3.52
2018-01-19T09:24:07.397Z,3.52
2018-01-19T09:25:07.428Z,3.54
2018-01-19T09:26:07.425Z,3.54
2018-01-19T09:27:07.416Z,3.53
2018-01-19T09:28:07.458Z,3.64
2018-01-19T09:29:07.458Z,3.59
2018-01-19T09:30:07.428Z,3.64
2018-01-19T09:31:07.441Z,3.60
2018-01-19T09:32:07.434Z,3.56
2018-01-19T09:33:07.570Z,3.60
2018-01-19T09:34:07.443Z,3.71
2018-01-19T09:35:07.458Z,3.64
2018-01-19T09:36:07.451Z,3.60
2018-01-19T09:37:07.470Z,3.63
2018-01-19T09:38:07.465Z,3.71
2018-01-19T09:39:07.514Z,3.67
2018-01-19T09:40:07.482Z,3.63
2018-01-19T09:41:07.497Z,3.74
2018-01-19T09:42:07.494Z,3.64
2018-01-19T09:43:07.506Z,3.72
2018-01-19T09:44:07.512Z,3.67
2018-01-19T09:45:07.510Z,3.64
2018-01-19T09:46:07.520Z,3.71
2018-01-19T09:47:07.543Z,3.68
2018-01-19T09:48:07.579Z,3.67
2018-01-19T09:49:07.542Z,3.68
2018-01-19T09:50:07.528Z,3.63
2018-01-19T09:51:07.528Z,3.75
2018-01-19T09:52:07.556Z,3.72
2018-01-19T09:53:07.576Z,3.71
2018-01-19T09:54:07.548Z,3.72
2018-01-19T09:55:07.544Z,3.67
2018-01-19T09:56:07.557Z,3.64
2018-01-19T09:57:07.557Z,3.64
2018-01-19T09:58:07.575Z,3.75
2018-01-19T09:59:07.587Z,3.77
2018-01-19T10:00:07.572Z,3.71
2018-01-19T10:01:07.575Z,3.75
2018-01-19T10:02:07.585Z,3.82
2018-01-19T10:03:07.607Z,3.81
2018-01-19T10:04:07.614Z,3.80
2018-01-19T10:05:07.596Z,3.84
2018-01-19T10:06:07.628Z,3.89
2018-01-19T10:07:07.636Z,3.99
2018-01-19T10:08:07.790Z,4.06
2018-01-19T10:09:07.620Z,3.96
2018-01-19T10:10:07.631Z,4.04
2018-01-19T10:11:07.690Z,4.14
2018-01-19T10:12:07.628Z,4.10
2018-01-19T10:13:07.642Z,4.10
2018-01-19T10:14:07.660Z,4.14
2018-01-19T10:15:07.661Z,4.26
2018-01-19T10:16:07.667Z,4.29
2018-01-19T10:17:07.684Z,4.35
2018-01-19T10:18:07.678Z,4.29
2018-01-19T10:19:07.662Z,4.26
2018-01-19T10:20:07.692Z,4.26
2018-01-19T10:21:07.726Z,4.32
2018-01-19T10:22:07.689Z,4.28
2018-01-19T10:23:07.699Z,4.16
2018-01-19T10:24:07.698Z,4.16
2018-01-19T10:25:07.806Z,4.21
2018-01-19T10:26:07.718Z,4.21
2018-01-19T10:27:07.716Z,4.21
2018-01-19T10:28:07.757Z,4.26
2018-01-19T10:29:07.738Z,4.31
2018-01-19T10:30:07.757Z,4.38
2018-01-19T10:31:07.749Z,4.44
2018-01-19T10:32:07.747Z,4.46
2018-01-19T10:33:07.758Z,4.56
2018-01-19T10:34:07.745Z,4.59
2018-01-19T10:35:07.771Z,4.38
2018-01-19T10:36:07.779Z,4.29
2018-01-19T10:37:07.824Z,4.32
2018-01-19T10:38:07.828Z,4.28
2018-01-19T10:39:07.795Z,4.36
2018-01-19T10:40:07.792Z,4.29
2018-01-19T10:41:07.790Z,4.35
2018-01-19T10:42:07.802Z,4.32
2018-01-19T10:43:07.812Z,4.36
2018-01-19T10:44:07.894Z,4.44
2018-01-19T10:45:07.979Z,4.31
2018-01-19T10:46:07.959Z,4.29
2018-01-19T10:47:07.837Z,4.29
2018-01-19T10:48:07.879Z,4.29
2018-01-19T10:49:07.856Z,4.36
2018-01-19T10:50:07.873Z,4.57
2018-01-19T10:51:07.853Z,4.79
2018-01-19T10:52:07.851Z,5.09
2018-01-19T10:53:07.914Z,5.40
2018-01-19T10:54:07.872Z,5.30
2018-01-19T10:55:07.877Z,5.38
2018-01-19T10:56:07.892Z,5.35
2018-01-19T10:57:07.935Z,5.63
2018-01-19T10:58:07.884Z,5.55
2018-01-19T10:59:08.630Z,5.37
2018-01-19T11:00:07.920Z,5.30
2018-01-19T11:01:07.917Z,5.29
2018-01-19T11:02:07.939Z,5.52
2018-01-19T11:03:07.918Z,5.32
2018-01-19T11:04:07.930Z,5.19
2018-01-19T11:05:07.928Z,5.06
2018-01-19T11:06:07.945Z,4.87
2018-01-19T11:07:07.951Z,4.71
2018-01-19T11:08:07.954Z,4.77
2018-01-19T11:09:07.994Z,4.87
2018-01-19T11:10:08.404Z,4.90
2018-01-19T11:11:08.054Z,4.88
2018-01-19T11:12:08.019Z,4.77
2018-01-19T11:13:07.978Z,4.90
2018-01-19T11:14:07.991Z,4.94
2018-01-19T11:15:08.017Z,4.93
2018-01-19T11:16:08.005Z,4.86
2018-01-19T11:17:08.015Z,4.80
2018-01-19T11:18:08.024Z,4.87
2018-01-19T11:19:08.035Z,4.87
2018-01-19T11:20:08.039Z,4.96
2018-01-19T11:21:08.032Z,4.88
2018-01-19T11:22:08.119Z,4.90
2018-01-19T11:23:08.058Z,4.97
2018-01-19T11:24:08.053Z,4.90
2018-01-19T11:25:08.064Z,4.97
2018-01-19T11:26:08.067Z,5.06
2018-01-19T11:27:08.104Z,5.27
2018-01-19T11:28:08.103Z,5.35
2018-01-19T11:29:08.093Z,5.48
2018-01-19T11:30:08.114Z,5.41
2018-01-19T11:31:08.114Z,5.41
2018-01-19T11:32:08.117Z,5.35
2018-01-19T11:33:08.113Z,5.33
2018-01-19T11:34:08.124Z,5.33
2018-01-19T11:35:08.151Z,5.33
2018-01-19T11:36:08.139Z,5.45
2018-01-19T11:37:08.137Z,5.44
2018-01-19T11:38:08.149Z,5.33
2018-01-19T11:39:08.152Z,5.38
2018-01-19T11:40:08.158Z,5.24
2018-01-19T11:41:08.180Z,5.29
2018-01-19T11:42:08.167Z,5.32
2018-01-19T11:43:08.196Z,5.33
2018-01-19T11:44:08.229Z,5.44
2018-01-19T11:45:08.292Z,5.44
2018-01-19T11:46:08.213Z,5.51
2018-01-19T11:47:08.271Z,5.63
2018-01-19T11:48:08.211Z,5.99
2018-01-19T11:49:08.240Z,6.25
2018-01-19T11:50:08.234Z,6.25
2018-01-19T11:51:08.223Z,6.05
2018-01-19T11:52:08.240Z,5.74
2018-01-19T11:53:08.263Z,5.62
2018-01-19T11:54:08.297Z,5.60
2018-01-19T11:55:08.256Z,5.44
2018-01-19T11:56:08.269Z,5.30
2018-01-19T11:57:08.277Z,5.32
2018-01-19T11:58:08.284Z,5.33
2018-01-19T11:59:08.378Z,5.33
2018-01-19T12:00:08.308Z,5.38
2018-01-19T12:01:08.298Z,5.38
2018-01-19T12:02:08.338Z,5.58
2018-01-19T12:03:08.363Z,5.62
2018-01-19T12:04:08.336Z,5.55
2018-01-19T12:05:08.332Z,5.47
2018-01-19T12:06:08.345Z,5.44
2018-01-19T12:07:08.343Z,5.60
2018-01-19T12:08:08.365Z,5.38
2018-01-19T12:09:08.391Z,5.27
2018-01-19T12:10:08.419Z,5.22
2018-01-19T12:11:08.369Z,5.32
2018-01-19T12:12:08.468Z,5.33
2018-01-19T12:13:08.492Z,5.41
2018-01-19T12:14:08.397Z,5.35
2018-01-19T12:15:08.396Z,5.29
2018-01-19T12:16:08.418Z,5.37
2018-01-19T12:17:08.445Z,5.33
2018-01-19T12:18:08.424Z,5.24
2018-01-19T12:19:08.424Z,5.23
2018-01-19T12:20:08.441Z,5.09
2018-01-19T12:21:08.444Z,5.01
2018-01-19T12:22:08.638Z,5.22
2018-01-19T12:23:08.455Z,5.30
2018-01-19T12:24:08.453Z,5.38
2018-01-19T12:25:08.462Z,5.35
2018-01-19T12:26:08.484Z,5.37
2018-01-19T12:27:08.481Z,5.38
2018-01-19T12:28:08.517Z,5.26
2018-01-19T12:29:08.483Z,5.30
2018-01-19T12:30:08.503Z,5.44
2018-01-19T12:31:08.504Z,5.66
2018-01-19T12:32:08.548Z,5.75
2018-01-19T12:33:08.511Z,5.81
2018-01-19T12:34:08.514Z,5.84
2018-01-19T12:35:08.520Z,5.96
2018-01-19T12:36:08.521Z,5.69
2018-01-19T12:37:08.538Z,5.49
2018-01-19T12:38:08.541Z,5.48
2018-01-19T12:39:08.540Z,5.49
2018-01-19T12:40:08.576Z,5.49
2018-01-19T12:41:08.679Z,5.49
2018-01-19T12:42:08.568Z,5.44
2018-01-19T12:43:08.604Z,5.33
2018-01-19T12:44:08.579Z,5.33
2018-01-19T12:45:08.578Z,5.29
2018-01-19T12:46:08.598Z,5.27
2018-01-19T12:47:08.602Z,5.38
2018-01-19T12:48:08.609Z,5.37
2018-01-19T12:49:08.622Z,5.44
2018-01-19T12:50:08.612Z,5.49
2018-01-19T12:51:08.638Z,5.48
2018-01-19T12:52:08.649Z,5.59
2018-01-19T12:53:08.659Z,5.48
2018-01-19T12:54:08.672Z,5.63
2018-01-19T12:55:08.645Z,5.59
2018-01-19T12:56:08.672Z,5.52
2018-01-19T12:57:08.675Z,5.49
2018-01-19T12:58:08.666Z,5.45
2018-01-19T12:59:08.680Z,5.30
2018-01-19T13:00:08.705Z,5.27
2018-01-19T13:01:08.688Z,5.35
2018-01-19T13:02:08.702Z,5.23
2018-01-19T13:03:08.734Z,5.29
2018-01-19T13:04:08.723Z,5.22
2018-01-19T13:05:08.736Z,5.30
2018-01-19T13:06:08.716Z,5.37
2018-01-19T13:07:08.750Z,5.41
2018-01-19T13:08:08.726Z,5.37
2018-01-19T13:09:08.737Z,5.47
2018-01-19T13:10:08.757Z,5.52
2018-01-19T13:11:08.755Z,5.55
2018-01-19T13:12:08.758Z,5.62
2018-01-19T13:13:08.902Z,5.55
2018-01-19T13:14:08.773Z,5.59
2018-01-19T13:15:08.798Z,5.65
2018-01-19T13:16:08.790Z,5.58
2018-01-19T13:17:08.814Z,5.63
2018-01-19T13:18:08.802Z,5.65
2018-01-19T13:19:08.802Z,5.60
2018-01-19T13:20:08.803Z,5.65
2018-01-19T13:21:08.827Z,5.62
2018-01-19T13:22:08.822Z,5.65
2018-01-19T13:23:08.830Z,5.62
2018-01-19T13:24:08.843Z,5.62
2018-01-19T13:25:08.832Z,5.52
2018-01-19T13:26:08.909Z,5.44
2018-01-19T13:27:08.917Z,5.51
2018-01-19T13:28:08.851Z,5.51
2018-01-19T13:29:08.855Z,5.56
2018-01-19T13:30:08.862Z,5.59
2018-01-19T13:31:08.871Z,5.58
2018-01-19T13:32:08.953Z,5.60
2018-01-19T13:33:08.883Z,5.51
2018-01-19T13:34:08.897Z,5.56
2018-01-19T13:35:08.894Z,5.51
2018-01-19T13:36:08.906Z,5.56
2018-01-19T13:37:08.908Z,5.63
2018-01-19T13:38:08.916Z,5.75
2018-01-19T13:39:08.942Z,5.83